sensor_id;sensor_type;location;lat;lon;timestamp;temperature;humidity
11744;DHT22;5929;51.906;7.674;2022-10-28T00:01:17;15.00;99.90
11744;DHT22;5929;51.906;7.674;2022-10-28T00:03:50;15.00;99.90
11744;DHT22;5929;51.906;7.674;2022-10-28T00:06:18;15.10;99.90
11744;DHT22;5929;51.906;7.674;2022-10-28T00:08:46;15.00;99.90
11744;DHT22;5929;51.906;7.674;2022-10-28T00:11:14;15.00;99.90
11744;DHT22;5929;51.906;7.674;2022-10-28T00:13:43;15.00;99.90
11744;DHT22;5929;51.906;7.674;2022-10-28T00:16:11;15.00;99.90
11744;DHT22;5929;51.906;7.674;2022-10-28T00:18:40;15.00;99.90
11744;DHT22;5929;51.906;7.674;2022-10-28T00:21:09;15.00;99.90
11744;DHT22;5929;51.906;7.674;2022-10-28T00:23:36;15.00;99.90
11744;DHT22;5929;51.906;7.674;2022-10-28T00:26:05;15.00;99.90
11744;DHT22;5929;51.906;7.674;2022-10-28T00:28:32;15.00;99.90
11744;DHT22;5929;51.906;7.674;2022-10-28T00:31:04;15.00;99.90
11744;DHT22;5929;51.906;7.674;2022-10-28T00:33:31;15.00;99.90
11744;DHT22;5929;51.906;7.674;2022-10-28T00:36:12;15.00;99.90
11744;DHT22;5929;51.906;7.674;2022-10-28T00:38:40;15.00;99.90
11744;DHT22;5929;51.906;7.674;2022-10-28T00:41:07;15.00;99.90
11744;DHT22;5929;51.906;7.674;2022-10-28T00:43:36;15.00;99.90
11744;DHT22;5929;51.906;7.674;2022-10-28T00:46:10;15.00;99.90
11744;DHT22;5929;51.906;7.674;2022-10-28T00:48:41;15.00;99.90
11744;DHT22;5929;51.906;7.674;2022-10-28T00:51:10;15.00;99.90
11744;DHT22;5929;51.906;7.674;2022-10-28T00:53:38;15.00;99.90
11744;DHT22;5929;51.906;7.674;2022-10-28T00:56:07;14.90;99.90
11744;DHT22;5929;51.906;7.674;2022-10-28T00:58:35;15.00;99.90
11744;DHT22;5929;51.906;7.674;2022-10-28T01:01:02;14.90;99.90
11744;DHT22;5929;51.906;7.674;2022-10-28T01:03:32;14.90;99.90
11744;DHT22;5929;51.906;7.674;2022-10-28T01:06:00;14.90;99.90
11744;DHT22;5929;51.906;7.674;2022-10-28T01:08:28;14.90;99.90
11744;DHT22;5929;51.906;7.674;2022-10-28T01:11:20;14.90;99.90
11744;DHT22;5929;51.906;7.674;2022-10-28T01:14:01;14.90;99.90
11744;DHT22;5929;51.906;7.674;2022-10-28T01:16:46;15.00;99.90
11744;DHT22;5929;51.906;7.674;2022-10-28T01:19:47;14.90;99.90
11744;DHT22;5929;51.906;7.674;2022-10-28T01:22:20;14.90;99.90
11744;DHT22;5929;51.906;7.674;2022-10-28T01:25:22;15.00;99.90
11744;DHT22;5929;51.906;7.674;2022-10-28T01:28:08;14.90;99.90
11744;DHT22;5929;51.906;7.674;2022-10-28T01:33:37;15.00;99.90
11744;DHT22;5929;51.906;7.674;2022-10-28T01:36:09;14.90;99.90
11744;DHT22;5929;51.906;7.674;2022-10-28T01:38:45;14.90;99.90
11744;DHT22;5929;51.906;7.674;2022-10-28T01:41:16;14.90;99.90
11744;DHT22;5929;51.906;7.674;2022-10-28T01:43:52;14.90;99.90
11744;DHT22;5929;51.906;7.674;2022-10-28T01:46:24;14.90;99.90
11744;DHT22;5929;51.906;7.674;2022-10-28T01:48:58;14.90;99.90
11744;DHT22;5929;51.906;7.674;2022-10-28T01:51:28;14.90;99.90
11744;DHT22;5929;51.906;7.674;2022-10-28T01:53:57;14.90;99.90
11744;DHT22;5929;51.906;7.674;2022-10-28T01:56:30;14.90;99.90
11744;DHT22;5929;51.906;7.674;2022-10-28T01:58:59;14.90;99.90
11744;DHT22;5929;51.906;7.674;2022-10-28T02:01:28;14.80;99.90
11744;DHT22;5929;51.906;7.674;2022-10-28T02:03:57;14.80;99.90
11744;DHT22;5929;51.906;7.674;2022-10-28T02:06:27;14.80;99.90
11744;DHT22;5929;51.906;7.674;2022-10-28T02:09:14;14.80;99.90
11744;DHT22;5929;51.906;7.674;2022-10-28T02:11:59;14.80;99.90
11744;DHT22;5929;51.906;7.674;2022-10-28T02:14:42;14.80;99.90
11744;DHT22;5929;51.906;7.674;2022-10-28T02:17:18;14.70;99.90
11744;DHT22;5929;51.906;7.674;2022-10-28T02:19:53;14.70;99.90
11744;DHT22;5929;51.906;7.674;2022-10-28T02:22:25;14.70;99.90
11744;DHT22;5929;51.906;7.674;2022-10-28T02:25:00;14.70;99.90
11744;DHT22;5929;51.906;7.674;2022-10-28T02:27:33;14.60;99.90
11744;DHT22;5929;51.906;7.674;2022-10-28T02:30:05;14.50;99.90
11744;DHT22;5929;51.906;7.674;2022-10-28T02:32:36;14.40;99.90
11744;DHT22;5929;51.906;7.674;2022-10-28T02:35:10;14.40;99.90
11744;DHT22;5929;51.906;7.674;2022-10-28T02:37:39;14.30;99.90
11744;DHT22;5929;51.906;7.674;2022-10-28T02:40:10;14.30;99.90
11744;DHT22;5929;51.906;7.674;2022-10-28T02:42:40;14.20;99.90
11744;DHT22;5929;51.906;7.674;2022-10-28T02:45:11;14.20;99.90
11744;DHT22;5929;51.906;7.674;2022-10-28T02:47:42;14.10;99.90
11744;DHT22;5929;51.906;7.674;2022-10-28T02:50:16;14.10;99.90
11744;DHT22;5929;51.906;7.674;2022-10-28T02:52:47;14.00;99.90
11744;DHT22;5929;51.906;7.674;2022-10-28T02:55:15;14.00;99.90
11744;DHT22;5929;51.906;7.674;2022-10-28T02:57:45;14.00;99.90
11744;DHT22;5929;51.906;7.674;2022-10-28T03:00:16;14.00;99.90
11744;DHT22;5929;51.906;7.674;2022-10-28T03:02:43;14.00;99.90
11744;DHT22;5929;51.906;7.674;2022-10-28T03:05:14;14.10;99.90
11744;DHT22;5929;51.906;7.674;2022-10-28T03:07:41;14.10;99.90
11744;DHT22;5929;51.906;7.674;2022-10-28T03:10:09;14.00;99.90
11744;DHT22;5929;51.906;7.674;2022-10-28T03:12:35;14.00;99.90
11744;DHT22;5929;51.906;7.674;2022-10-28T03:15:03;14.00;99.90
11744;DHT22;5929;51.906;7.674;2022-10-28T03:17:30;14.00;99.90
11744;DHT22;5929;51.906;7.674;2022-10-28T03:19:56;14.00;99.90
11744;DHT22;5929;51.906;7.674;2022-10-28T03:22:25;14.00;99.90
11744;DHT22;5929;51.906;7.674;2022-10-28T03:24:51;14.00;99.90
11744;DHT22;5929;51.906;7.674;2022-10-28T03:27:18;14.00;99.90
11744;DHT22;5929;51.906;7.674;2022-10-28T03:29:45;13.90;99.90
11744;DHT22;5929;51.906;7.674;2022-10-28T03:32:12;13.90;99.90
11744;DHT22;5929;51.906;7.674;2022-10-28T03:34:38;13.90;99.90
11744;DHT22;5929;51.906;7.674;2022-10-28T03:37:05;13.80;99.90
11744;DHT22;5929;51.906;7.674;2022-10-28T03:39:33;13.80;99.90
11744;DHT22;5929;51.906;7.674;2022-10-28T03:42:00;13.90;99.90
11744;DHT22;5929;51.906;7.674;2022-10-28T03:44:27;13.80;99.90
11744;DHT22;5929;51.906;7.674;2022-10-28T03:46:54;13.80;99.90
11744;DHT22;5929;51.906;7.674;2022-10-28T03:49:21;13.80;99.90
11744;DHT22;5929;51.906;7.674;2022-10-28T03:51:48;13.70;99.90
11744;DHT22;5929;51.906;7.674;2022-10-28T03:54:14;13.70;99.90
11744;DHT22;5929;51.906;7.674;2022-10-28T03:56:42;13.70;99.90
11744;DHT22;5929;51.906;7.674;2022-10-28T03:59:10;13.70;99.90
11744;DHT22;5929;51.906;7.674;2022-10-28T04:01:36;13.60;99.90
11744;DHT22;5929;51.906;7.674;2022-10-28T04:04:04;13.50;99.90
11744;DHT22;5929;51.906;7.674;2022-10-28T04:06:30;13.50;99.90
11744;DHT22;5929;51.906;7.674;2022-10-28T04:08:57;13.50;99.90
11744;DHT22;5929;51.906;7.674;2022-10-28T04:11:24;13.40;99.90
11744;DHT22;5929;51.906;7.674;2022-10-28T04:13:52;13.40;99.90
11744;DHT22;5929;51.906;7.674;2022-10-28T04:16:19;13.40;99.90
11744;DHT22;5929;51.906;7.674;2022-10-28T04:18:46;13.30;99.90
11744;DHT22;5929;51.906;7.674;2022-10-28T04:21:13;13.30;99.90
11744;DHT22;5929;51.906;7.674;2022-10-28T04:23:39;13.30;99.90
11744;DHT22;5929;51.906;7.674;2022-10-28T04:26:06;13.20;99.90
11744;DHT22;5929;51.906;7.674;2022-10-28T04:28:33;13.20;99.90
11744;DHT22;5929;51.906;7.674;2022-10-28T04:31:01;13.20;99.90
11744;DHT22;5929;51.906;7.674;2022-10-28T04:33:28;13.10;99.90
11744;DHT22;5929;51.906;7.674;2022-10-28T04:35:55;13.10;99.90
11744;DHT22;5929;51.906;7.674;2022-10-28T04:38:22;13.10;99.90
11744;DHT22;5929;51.906;7.674;2022-10-28T04:40:49;13.10;99.90
11744;DHT22;5929;51.906;7.674;2022-10-28T04:43:16;13.10;99.90
11744;DHT22;5929;51.906;7.674;2022-10-28T04:45:44;13.00;99.90
11744;DHT22;5929;51.906;7.674;2022-10-28T04:48:12;13.00;99.90
11744;DHT22;5929;51.906;7.674;2022-10-28T04:50:39;13.10;99.90
11744;DHT22;5929;51.906;7.674;2022-10-28T04:53:06;13.00;99.90
11744;DHT22;5929;51.906;7.674;2022-10-28T04:55:33;12.90;99.90
11744;DHT22;5929;51.906;7.674;2022-10-28T04:58:00;12.90;99.90
11744;DHT22;5929;51.906;7.674;2022-10-28T05:00:28;12.90;99.90
11744;DHT22;5929;51.906;7.674;2022-10-28T05:02:55;12.90;99.90
11744;DHT22;5929;51.906;7.674;2022-10-28T05:05:24;12.90;99.90
11744;DHT22;5929;51.906;7.674;2022-10-28T05:07:51;12.90;99.90
11744;DHT22;5929;51.906;7.674;2022-10-28T05:10:18;12.80;99.90
11744;DHT22;5929;51.906;7.674;2022-10-28T05:12:45;12.90;99.90
11744;DHT22;5929;51.906;7.674;2022-10-28T05:15:13;12.90;99.90
11744;DHT22;5929;51.906;7.674;2022-10-28T05:17:42;12.90;99.90
11744;DHT22;5929;51.906;7.674;2022-10-28T05:20:10;12.90;99.90
11744;DHT22;5929;51.906;7.674;2022-10-28T05:22:44;12.90;99.90
11744;DHT22;5929;51.906;7.674;2022-10-28T05:25:11;12.90;99.90
11744;DHT22;5929;51.906;7.674;2022-10-28T05:27:38;12.80;99.90
11744;DHT22;5929;51.906;7.674;2022-10-28T05:30:06;12.70;99.90
11744;DHT22;5929;51.906;7.674;2022-10-28T05:32:33;12.70;99.90
11744;DHT22;5929;51.906;7.674;2022-10-28T05:34:59;12.70;99.90
11744;DHT22;5929;51.906;7.674;2022-10-28T05:37:26;12.70;99.90
11744;DHT22;5929;51.906;7.674;2022-10-28T05:39:54;12.60;99.90
11744;DHT22;5929;51.906;7.674;2022-10-28T05:42:21;12.60;99.90
11744;DHT22;5929;51.906;7.674;2022-10-28T05:44:48;12.60;99.90
11744;DHT22;5929;51.906;7.674;2022-10-28T05:47:15;12.60;99.90
11744;DHT22;5929;51.906;7.674;2022-10-28T05:49:42;12.60;99.90
11744;DHT22;5929;51.906;7.674;2022-10-28T05:52:08;12.60;99.90
11744;DHT22;5929;51.906;7.674;2022-10-28T05:54:35;12.60;99.90
11744;DHT22;5929;51.906;7.674;2022-10-28T05:57:06;12.60;99.90
11744;DHT22;5929;51.906;7.674;2022-10-28T05:59:33;12.60;99.90
11744;DHT22;5929;51.906;7.674;2022-10-28T06:01:59;12.60;99.90
11744;DHT22;5929;51.906;7.674;2022-10-28T06:04:26;12.60;99.90
11744;DHT22;5929;51.906;7.674;2022-10-28T06:06:56;12.60;99.90
11744;DHT22;5929;51.906;7.674;2022-10-28T06:09:24;12.60;99.90
11744;DHT22;5929;51.906;7.674;2022-10-28T06:11:52;12.60;99.90
11744;DHT22;5929;51.906;7.674;2022-10-28T06:14:20;12.60;99.90
11744;DHT22;5929;51.906;7.674;2022-10-28T06:16:47;12.60;99.90
11744;DHT22;5929;51.906;7.674;2022-10-28T06:19:14;12.60;99.90
11744;DHT22;5929;51.906;7.674;2022-10-28T06:21:41;12.60;99.90
11744;DHT22;5929;51.906;7.674;2022-10-28T06:24:08;12.70;99.90
11744;DHT22;5929;51.906;7.674;2022-10-28T06:26:38;12.70;99.90
11744;DHT22;5929;51.906;7.674;2022-10-28T06:29:04;12.70;99.90
11744;DHT22;5929;51.906;7.674;2022-10-28T06:31:33;12.70;99.90
11744;DHT22;5929;51.906;7.674;2022-10-28T06:33:59;12.70;99.90
11744;DHT22;5929;51.906;7.674;2022-10-28T06:36:26;12.70;99.90
11744;DHT22;5929;51.906;7.674;2022-10-28T06:38:54;12.70;99.90
11744;DHT22;5929;51.906;7.674;2022-10-28T06:41:23;12.70;99.90
11744;DHT22;5929;51.906;7.674;2022-10-28T06:43:50;12.80;99.90
11744;DHT22;5929;51.906;7.674;2022-10-28T06:46:17;12.70;99.90
11744;DHT22;5929;51.906;7.674;2022-10-28T06:48:46;12.80;99.90
11744;DHT22;5929;51.906;7.674;2022-10-28T06:51:13;12.80;99.90
11744;DHT22;5929;51.906;7.674;2022-10-28T06:53:41;12.80;99.90
11744;DHT22;5929;51.906;7.674;2022-10-28T06:56:08;12.80;99.90
11744;DHT22;5929;51.906;7.674;2022-10-28T06:58:35;12.80;99.90
11744;DHT22;5929;51.906;7.674;2022-10-28T07:01:03;12.80;99.90
11744;DHT22;5929;51.906;7.674;2022-10-28T07:03:30;12.90;99.90
11744;DHT22;5929;51.906;7.674;2022-10-28T07:06:00;12.90;99.90
11744;DHT22;5929;51.906;7.674;2022-10-28T07:08:27;13.00;99.90
11744;DHT22;5929;51.906;7.674;2022-10-28T07:10:55;13.10;99.90
11744;DHT22;5929;51.906;7.674;2022-10-28T07:13:25;13.10;99.90
11744;DHT22;5929;51.906;7.674;2022-10-28T07:15:53;13.20;99.90
11744;DHT22;5929;51.906;7.674;2022-10-28T07:18:20;13.30;99.90
11744;DHT22;5929;51.906;7.674;2022-10-28T07:20:47;13.30;99.90
11744;DHT22;5929;51.906;7.674;2022-10-28T07:23:16;13.40;99.90
11744;DHT22;5929;51.906;7.674;2022-10-28T07:25:49;13.40;99.90
11744;DHT22;5929;51.906;7.674;2022-10-28T07:28:16;13.50;99.90
11744;DHT22;5929;51.906;7.674;2022-10-28T07:30:43;13.50;99.90
11744;DHT22;5929;51.906;7.674;2022-10-28T07:33:10;13.50;99.90
11744;DHT22;5929;51.906;7.674;2022-10-28T07:35:37;13.60;99.90
11744;DHT22;5929;51.906;7.674;2022-10-28T07:38:04;13.60;99.90
11744;DHT22;5929;51.906;7.674;2022-10-28T07:40:32;13.70;99.90
11744;DHT22;5929;51.906;7.674;2022-10-28T07:42:59;13.80;99.90
11744;DHT22;5929;51.906;7.674;2022-10-28T07:45:25;13.80;99.90
11744;DHT22;5929;51.906;7.674;2022-10-28T07:47:52;13.90;99.90
11744;DHT22;5929;51.906;7.674;2022-10-28T07:50:19;14.00;99.90
11744;DHT22;5929;51.906;7.674;2022-10-28T07:52:46;14.10;99.90
11744;DHT22;5929;51.906;7.674;2022-10-28T07:55:13;14.20;99.90
11744;DHT22;5929;51.906;7.674;2022-10-28T07:57:41;14.30;99.90
11744;DHT22;5929;51.906;7.674;2022-10-28T08:00:08;14.40;99.90
11744;DHT22;5929;51.906;7.674;2022-10-28T08:02:35;14.50;99.90
11744;DHT22;5929;51.906;7.674;2022-10-28T08:05:03;14.60;99.90
11744;DHT22;5929;51.906;7.674;2022-10-28T08:07:30;14.70;99.90
11744;DHT22;5929;51.906;7.674;2022-10-28T08:09:57;14.90;99.90
11744;DHT22;5929;51.906;7.674;2022-10-28T08:12:24;15.00;99.90
11744;DHT22;5929;51.906;7.674;2022-10-28T08:14:56;15.30;99.90
11744;DHT22;5929;51.906;7.674;2022-10-28T08:17:23;15.50;99.90
11744;DHT22;5929;51.906;7.674;2022-10-28T08:19:50;15.70;99.90
11744;DHT22;5929;51.906;7.674;2022-10-28T08:22:16;15.90;99.90
11744;DHT22;5929;51.906;7.674;2022-10-28T08:24:43;16.10;99.90
11744;DHT22;5929;51.906;7.674;2022-10-28T08:27:10;16.20;99.90
11744;DHT22;5929;51.906;7.674;2022-10-28T08:29:37;16.30;99.90
11744;DHT22;5929;51.906;7.674;2022-10-28T08:32:06;16.60;99.90
11744;DHT22;5929;51.906;7.674;2022-10-28T08:34:33;16.70;99.90
11744;DHT22;5929;51.906;7.674;2022-10-28T08:37:00;16.90;99.90
11744;DHT22;5929;51.906;7.674;2022-10-28T08:39:29;17.00;99.90
11744;DHT22;5929;51.906;7.674;2022-10-28T08:42:03;17.20;99.90
11744;DHT22;5929;51.906;7.674;2022-10-28T08:47:44;17.50;99.90
11744;DHT22;5929;51.906;7.674;2022-10-28T08:50:17;17.60;99.90
11744;DHT22;5929;51.906;7.674;2022-10-28T08:52:48;17.60;99.90
11744;DHT22;5929;51.906;7.674;2022-10-28T08:55:22;17.60;99.90
11744;DHT22;5929;51.906;7.674;2022-10-28T08:57:52;17.60;99.90
11744;DHT22;5929;51.906;7.674;2022-10-28T09:00:23;17.70;99.90
11744;DHT22;5929;51.906;7.674;2022-10-28T09:03:00;17.80;99.90
11744;DHT22;5929;51.906;7.674;2022-10-28T09:05:29;17.90;99.90
11744;DHT22;5929;51.906;7.674;2022-10-28T09:07:56;18.10;99.90
11744;DHT22;5929;51.906;7.674;2022-10-28T09:13:35;18.30;99.90
11744;DHT22;5929;51.906;7.674;2022-10-28T09:16:10;18.40;99.90
11744;DHT22;5929;51.906;7.674;2022-10-28T09:18:50;18.50;99.90
11744;DHT22;5929;51.906;7.674;2022-10-28T09:21:19;18.60;99.90
11744;DHT22;5929;51.906;7.674;2022-10-28T09:23:54;18.70;99.90
11744;DHT22;5929;51.906;7.674;2022-10-28T09:26:30;18.80;99.90
11744;DHT22;5929;51.906;7.674;2022-10-28T09:29:05;18.90;99.90
11744;DHT22;5929;51.906;7.674;2022-10-28T09:31:38;18.90;99.90
11744;DHT22;5929;51.906;7.674;2022-10-28T09:34:17;18.90;99.90
11744;DHT22;5929;51.906;7.674;2022-10-28T09:36:49;18.90;99.90
11744;DHT22;5929;51.906;7.674;2022-10-28T09:39:19;18.90;99.90
11744;DHT22;5929;51.906;7.674;2022-10-28T09:41:48;19.00;99.90
11744;DHT22;5929;51.906;7.674;2022-10-28T09:44:19;19.10;99.90
11744;DHT22;5929;51.906;7.674;2022-10-28T09:46:50;19.20;99.90
11744;DHT22;5929;51.906;7.674;2022-10-28T09:49:24;19.40;99.90
11744;DHT22;5929;51.906;7.674;2022-10-28T09:51:54;19.40;99.90
11744;DHT22;5929;51.906;7.674;2022-10-28T09:54:31;19.50;99.90
11744;DHT22;5929;51.906;7.674;2022-10-28T09:56:59;19.60;99.90
11744;DHT22;5929;51.906;7.674;2022-10-28T09:59:26;19.80;99.90
11744;DHT22;5929;51.906;7.674;2022-10-28T10:01:53;20.00;99.90
11744;DHT22;5929;51.906;7.674;2022-10-28T10:04:22;20.20;99.90
11744;DHT22;5929;51.906;7.674;2022-10-28T10:06:53;20.40;99.90
11744;DHT22;5929;51.906;7.674;2022-10-28T10:09:23;20.50;99.90
11744;DHT22;5929;51.906;7.674;2022-10-28T10:11:54;20.70;99.90
11744;DHT22;5929;51.906;7.674;2022-10-28T10:14:25;20.80;99.90
11744;DHT22;5929;51.906;7.674;2022-10-28T10:16:59;20.90;99.90
11744;DHT22;5929;51.906;7.674;2022-10-28T10:20:02;21.00;99.90
11744;DHT22;5929;51.906;7.674;2022-10-28T10:22:30;21.20;99.90
11744;DHT22;5929;51.906;7.674;2022-10-28T10:24:58;21.40;99.90
11744;DHT22;5929;51.906;7.674;2022-10-28T10:27:26;21.40;99.90
11744;DHT22;5929;51.906;7.674;2022-10-28T10:29:54;21.40;99.90
11744;DHT22;5929;51.906;7.674;2022-10-28T10:32:25;21.50;99.90
11744;DHT22;5929;51.906;7.674;2022-10-28T10:34:58;21.70;99.90
11744;DHT22;5929;51.906;7.674;2022-10-28T10:37:26;21.70;99.90
11744;DHT22;5929;51.906;7.674;2022-10-28T10:40:04;21.70;99.90
11744;DHT22;5929;51.906;7.674;2022-10-28T10:42:31;22.00;99.90
11744;DHT22;5929;51.906;7.674;2022-10-28T10:45:01;22.20;99.90
11744;DHT22;5929;51.906;7.674;2022-10-28T10:47:31;22.40;99.90
11744;DHT22;5929;51.906;7.674;2022-10-28T10:50:21;22.60;99.90
11744;DHT22;5929;51.906;7.674;2022-10-28T10:52:53;22.60;99.60
11744;DHT22;5929;51.906;7.674;2022-10-28T10:55:30;22.70;99.90
11744;DHT22;5929;51.906;7.674;2022-10-28T10:57:57;23.10;99.90
11744;DHT22;5929;51.906;7.674;2022-10-28T11:00:30;23.70;98.50
11744;DHT22;5929;51.906;7.674;2022-10-28T11:02:58;24.00;97.40
11744;DHT22;5929;51.906;7.674;2022-10-28T11:05:27;24.00;97.00
11744;DHT22;5929;51.906;7.674;2022-10-28T11:07:56;23.70;97.10
11744;DHT22;5929;51.906;7.674;2022-10-28T11:10:24;23.30;97.40
11744;DHT22;5929;51.906;7.674;2022-10-28T11:12:54;23.20;97.90
11744;DHT22;5929;51.906;7.674;2022-10-28T11:15:25;23.10;97.90
11744;DHT22;5929;51.906;7.674;2022-10-28T11:17:55;23.20;98.40
11744;DHT22;5929;51.906;7.674;2022-10-28T11:20:23;23.60;97.50
11744;DHT22;5929;51.906;7.674;2022-10-28T11:23:05;23.90;97.20
11744;DHT22;5929;51.906;7.674;2022-10-28T11:25:35;24.30;97.50
11744;DHT22;5929;51.906;7.674;2022-10-28T11:28:18;24.80;96.20
11744;DHT22;5929;51.906;7.674;2022-10-28T11:30:55;25.20;95.80
11744;DHT22;5929;51.906;7.674;2022-10-28T11:33:34;25.30;95.00
11744;DHT22;5929;51.906;7.674;2022-10-28T11:36:10;25.10;94.60
11744;DHT22;5929;51.906;7.674;2022-10-28T11:39:00;25.00;94.40
11744;DHT22;5929;51.906;7.674;2022-10-28T11:41:38;25.00;94.20
11744;DHT22;5929;51.906;7.674;2022-10-28T11:44:14;24.90;95.00
11744;DHT22;5929;51.906;7.674;2022-10-28T11:46:51;25.10;94.30
11744;DHT22;5929;51.906;7.674;2022-10-28T11:49:55;25.40;94.10
11744;DHT22;5929;51.906;7.674;2022-10-28T11:52:38;25.50;93.90
11744;DHT22;5929;51.906;7.674;2022-10-28T11:55:20;25.30;93.50
11744;DHT22;5929;51.906;7.674;2022-10-28T11:58:02;25.00;93.10
11744;DHT22;5929;51.906;7.674;2022-10-28T12:00:49;24.60;93.30
11744;DHT22;5929;51.906;7.674;2022-10-28T12:03:42;24.20;94.90
11744;DHT22;5929;51.906;7.674;2022-10-28T12:06:22;24.00;94.10
11744;DHT22;5929;51.906;7.674;2022-10-28T12:09:02;24.00;93.90
11744;DHT22;5929;51.906;7.674;2022-10-28T12:11:55;24.20;94.70
11744;DHT22;5929;51.906;7.674;2022-10-28T12:14:31;24.40;94.30
11744;DHT22;5929;51.906;7.674;2022-10-28T12:17:05;24.80;93.40
11744;DHT22;5929;51.906;7.674;2022-10-28T12:19:42;25.00;93.60
11744;DHT22;5929;51.906;7.674;2022-10-28T12:22:13;24.90;92.80
11744;DHT22;5929;51.906;7.674;2022-10-28T12:24:44;24.90;93.30
11744;DHT22;5929;51.906;7.674;2022-10-28T12:27:15;24.90;92.70
11744;DHT22;5929;51.906;7.674;2022-10-28T12:29:45;24.90;93.30
11744;DHT22;5929;51.906;7.674;2022-10-28T12:32:18;25.10;93.30
11744;DHT22;5929;51.906;7.674;2022-10-28T12:34:48;25.40;92.10
11744;DHT22;5929;51.906;7.674;2022-10-28T12:37:20;25.60;91.50
11744;DHT22;5929;51.906;7.674;2022-10-28T12:39:55;25.60;91.70
11744;DHT22;5929;51.906;7.674;2022-10-28T12:42:29;25.60;91.60
11744;DHT22;5929;51.906;7.674;2022-10-28T12:44:58;25.60;91.90
11744;DHT22;5929;51.906;7.674;2022-10-28T12:47:30;25.60;92.10
11744;DHT22;5929;51.906;7.674;2022-10-28T12:50:08;25.40;92.10
11744;DHT22;5929;51.906;7.674;2022-10-28T12:52:43;25.10;92.10
11744;DHT22;5929;51.906;7.674;2022-10-28T12:55:20;25.10;92.00
11744;DHT22;5929;51.906;7.674;2022-10-28T12:57:56;25.10;91.90
11744;DHT22;5929;51.906;7.674;2022-10-28T13:00:26;25.40;91.60
11744;DHT22;5929;51.906;7.674;2022-10-28T13:02:58;25.50;91.10
11744;DHT22;5929;51.906;7.674;2022-10-28T13:05:30;25.70;90.80
11744;DHT22;5929;51.906;7.674;2022-10-28T13:08:21;25.70;90.70
11744;DHT22;5929;51.906;7.674;2022-10-28T13:11:11;25.40;91.20
11744;DHT22;5929;51.906;7.674;2022-10-28T13:13:49;25.20;91.50
11744;DHT22;5929;51.906;7.674;2022-10-28T13:16:39;25.10;91.30
11744;DHT22;5929;51.906;7.674;2022-10-28T13:19:23;25.10;91.40
11744;DHT22;5929;51.906;7.674;2022-10-28T13:22:13;25.20;91.60
11744;DHT22;5929;51.906;7.674;2022-10-28T13:24:48;25.10;91.80
11744;DHT22;5929;51.906;7.674;2022-10-28T13:27:18;25.00;92.50
11744;DHT22;5929;51.906;7.674;2022-10-28T13:29:50;24.90;92.60
11744;DHT22;5929;51.906;7.674;2022-10-28T13:32:32;24.80;93.00
11744;DHT22;5929;51.906;7.674;2022-10-28T13:35:00;24.70;92.60
11744;DHT22;5929;51.906;7.674;2022-10-28T13:37:36;24.60;93.00
11744;DHT22;5929;51.906;7.674;2022-10-28T13:40:05;24.50;93.10
11744;DHT22;5929;51.906;7.674;2022-10-28T13:42:45;24.50;92.70
11744;DHT22;5929;51.906;7.674;2022-10-28T13:48:52;24.40;93.00
11744;DHT22;5929;51.906;7.674;2022-10-28T13:51:32;24.40;93.30
11744;DHT22;5929;51.906;7.674;2022-10-28T13:53:59;24.40;93.20
11744;DHT22;5929;51.906;7.674;2022-10-28T13:56:44;24.30;94.20
11744;DHT22;5929;51.906;7.674;2022-10-28T13:59:22;24.30;93.50
11744;DHT22;5929;51.906;7.674;2022-10-28T14:01:58;24.30;93.80
11744;DHT22;5929;51.906;7.674;2022-10-28T14:04:30;24.30;94.30
11744;DHT22;5929;51.906;7.674;2022-10-28T14:07:18;24.20;94.30
11744;DHT22;5929;51.906;7.674;2022-10-28T14:09:51;24.10;94.50
11744;DHT22;5929;51.906;7.674;2022-10-28T14:12:26;24.10;94.90
11744;DHT22;5929;51.906;7.674;2022-10-28T14:15:04;24.00;94.40
11744;DHT22;5929;51.906;7.674;2022-10-28T14:17:39;23.90;94.60
11744;DHT22;5929;51.906;7.674;2022-10-28T14:20:22;23.90;94.10
11744;DHT22;5929;51.906;7.674;2022-10-28T14:22:49;23.90;94.30
11744;DHT22;5929;51.906;7.674;2022-10-28T14:28:49;23.90;94.60
11744;DHT22;5929;51.906;7.674;2022-10-28T14:31:37;23.90;94.80
11744;DHT22;5929;51.906;7.674;2022-10-28T14:34:38;23.80;94.90
11744;DHT22;5929;51.906;7.674;2022-10-28T14:37:33;23.70;95.40
11744;DHT22;5929;51.906;7.674;2022-10-28T14:40:23;23.60;95.80
11744;DHT22;5929;51.906;7.674;2022-10-28T14:42:57;23.50;96.10
11744;DHT22;5929;51.906;7.674;2022-10-28T14:45:32;23.40;96.20
11744;DHT22;5929;51.906;7.674;2022-10-28T14:51:00;23.40;96.00
11744;DHT22;5929;51.906;7.674;2022-10-28T14:53:31;23.20;96.10
11744;DHT22;5929;51.906;7.674;2022-10-28T14:56:00;23.20;96.20
11744;DHT22;5929;51.906;7.674;2022-10-28T14:58:31;23.10;96.20
11744;DHT22;5929;51.906;7.674;2022-10-28T15:01:17;23.00;96.50
11744;DHT22;5929;51.906;7.674;2022-10-28T15:03:47;22.90;96.30
11744;DHT22;5929;51.906;7.674;2022-10-28T15:06:27;22.90;96.40
11744;DHT22;5929;51.906;7.674;2022-10-28T15:09:03;22.80;96.10
11744;DHT22;5929;51.906;7.674;2022-10-28T15:11:31;22.70;96.40
11744;DHT22;5929;51.906;7.674;2022-10-28T15:14:12;22.60;96.40
11744;DHT22;5929;51.906;7.674;2022-10-28T15:16:45;22.50;96.40
11744;DHT22;5929;51.906;7.674;2022-10-28T15:19:15;22.50;96.60
11744;DHT22;5929;51.906;7.674;2022-10-28T15:21:43;22.40;96.60
11744;DHT22;5929;51.906;7.674;2022-10-28T15:24:13;22.40;96.70
11744;DHT22;5929;51.906;7.674;2022-10-28T15:26:40;22.20;96.90
11744;DHT22;5929;51.906;7.674;2022-10-28T15:29:08;22.10;97.80
11744;DHT22;5929;51.906;7.674;2022-10-28T15:32:09;22.00;97.30
11744;DHT22;5929;51.906;7.674;2022-10-28T15:34:36;22.00;97.40
11744;DHT22;5929;51.906;7.674;2022-10-28T15:37:03;22.00;97.20
11744;DHT22;5929;51.906;7.674;2022-10-28T15:39:32;22.00;97.20
11744;DHT22;5929;51.906;7.674;2022-10-28T15:41:59;21.90;97.20
11744;DHT22;5929;51.906;7.674;2022-10-28T15:44:35;21.90;97.20
11744;DHT22;5929;51.906;7.674;2022-10-28T15:47:18;21.90;97.30
11744;DHT22;5929;51.906;7.674;2022-10-28T15:52:42;21.90;97.40
11744;DHT22;5929;51.906;7.674;2022-10-28T15:55:30;21.80;97.20
11744;DHT22;5929;51.906;7.674;2022-10-28T15:57:58;21.90;97.00
11744;DHT22;5929;51.906;7.674;2022-10-28T16:00:28;21.90;96.80
11744;DHT22;5929;51.906;7.674;2022-10-28T16:02:59;21.80;96.70
11744;DHT22;5929;51.906;7.674;2022-10-28T16:05:57;21.80;96.60
11744;DHT22;5929;51.906;7.674;2022-10-28T16:08:26;21.70;96.40
11744;DHT22;5929;51.906;7.674;2022-10-28T16:10:58;21.70;96.60
11744;DHT22;5929;51.906;7.674;2022-10-28T16:13:28;21.60;96.50
11744;DHT22;5929;51.906;7.674;2022-10-28T16:16:00;21.60;96.30
11744;DHT22;5929;51.906;7.674;2022-10-28T16:18:28;21.50;96.40
11744;DHT22;5929;51.906;7.674;2022-10-28T16:20:57;21.50;96.70
11744;DHT22;5929;51.906;7.674;2022-10-28T16:23:31;21.40;96.30
11744;DHT22;5929;51.906;7.674;2022-10-28T16:26:00;21.40;96.30
11744;DHT22;5929;51.906;7.674;2022-10-28T16:28:31;21.30;96.40
11744;DHT22;5929;51.906;7.674;2022-10-28T16:30:59;21.30;96.40
11744;DHT22;5929;51.906;7.674;2022-10-28T16:33:29;21.20;96.60
11744;DHT22;5929;51.906;7.674;2022-10-28T16:35:57;21.20;96.60